sensor_id;sensor_type;location;lat;lon;timestamp;P1;durP1;ratioP1;P2;durP2;ratioP2
6432;SDS011;3249;42.690;23.260;2023-02-01T00:00:08;6.73;;;6.23;;
6432;SDS011;3249;42.690;23.260;2023-02-01T00:02:41;7.70;;;6.03;;
6432;SDS011;3249;42.690;23.260;2023-02-01T00:05:10;7.00;;;6.30;;
6432;SDS011;3249;42.690;23.260;2023-02-01T00:07:39;6.73;;;6.03;;
6432;SDS011;3249;42.690;23.260;2023-02-01T00:10:08;7.37;;;6.77;;
6432;SDS011;3249;42.690;23.260;2023-02-01T00:12:38;7.60;;;6.97;;
6432;SDS011;3249;42.690;23.260;2023-02-01T00:15:08;8.20;;;6.43;;
6432;SDS011;3249;42.690;23.260;2023-02-01T00:17:37;6.10;;;5.60;;
6432;SDS011;3249;42.690;23.260;2023-02-01T00:20:09;6.87;;;5.97;;
6432;SDS011;3249;42.690;23.260;2023-02-01T00:22:39;6.10;;;5.60;;
6432;SDS011;3249;42.690;23.260;2023-02-01T00:25:08;6.27;;;5.67;;
6432;SDS011;3249;42.690;23.260;2023-02-01T00:27:37;8.40;;;6.83;;
6432;SDS011;3249;42.690;23.260;2023-02-01T00:30:07;6.20;;;5.70;;
6432;SDS011;3249;42.690;23.260;2023-02-01T00:32:37;7.00;;;6.30;;
6432;SDS011;3249;42.690;23.260;2023-02-01T00:35:06;6.43;;;5.60;;
6432;SDS011;3249;42.690;23.260;2023-02-01T00:37:39;5.93;;;5.53;;
6432;SDS011;3249;42.690;23.260;2023-02-01T00:40:08;6.13;;;5.63;;
6432;SDS011;3249;42.690;23.260;2023-02-01T00:42:38;5.63;;;5.17;;
6432;SDS011;3249;42.690;23.260;2023-02-01T00:45:08;5.57;;;5.23;;
6432;SDS011;3249;42.690;23.260;2023-02-01T00:47:37;6.30;;;5.83;;
6432;SDS011;3249;42.690;23.260;2023-02-01T00:50:07;7.30;;;5.80;;
6432;SDS011;3249;42.690;23.260;2023-02-01T00:52:39;5.77;;;5.37;;
6432;SDS011;3249;42.690;23.260;2023-02-01T00:55:08;7.57;;;5.73;;
6432;SDS011;3249;42.690;23.260;2023-02-01T00:57:37;5.70;;;5.30;;
6432;SDS011;3249;42.690;23.260;2023-02-01T01:00:06;7.00;;;5.77;;
6432;SDS011;3249;42.690;23.260;2023-02-01T01:02:36;6.10;;;5.57;;
6432;SDS011;3249;42.690;23.260;2023-02-01T01:05:06;6.37;;;5.87;;
6432;SDS011;3249;42.690;23.260;2023-02-01T01:07:39;5.67;;;5.27;;
6432;SDS011;3249;42.690;23.260;2023-02-01T01:10:08;6.20;;;5.60;;
6432;SDS011;3249;42.690;23.260;2023-02-01T01:12:38;5.50;;;5.20;;
6432;SDS011;3249;42.690;23.260;2023-02-01T01:15:07;5.70;;;5.20;;
6432;SDS011;3249;42.690;23.260;2023-02-01T01:17:38;6.03;;;5.43;;
6432;SDS011;3249;42.690;23.260;2023-02-01T01:20:07;5.80;;;5.30;;
6432;SDS011;3249;42.690;23.260;2023-02-01T01:22:40;5.60;;;5.10;;
6432;SDS011;3249;42.690;23.260;2023-02-01T01:25:08;5.03;;;4.57;;
6432;SDS011;3249;42.690;23.260;2023-02-01T01:27:37;6.03;;;5.53;;
6432;SDS011;3249;42.690;23.260;2023-02-01T01:30:07;4.67;;;4.37;;
6432;SDS011;3249;42.690;23.260;2023-02-01T01:32:36;4.60;;;4.20;;
6432;SDS011;3249;42.690;23.260;2023-02-01T01:35:06;4.67;;;4.37;;
6432;SDS011;3249;42.690;23.260;2023-02-01T01:37:35;4.77;;;4.37;;
6432;SDS011;3249;42.690;23.260;2023-02-01T01:40:08;4.90;;;4.50;;
6432;SDS011;3249;42.690;23.260;2023-02-01T01:42:39;4.50;;;4.20;;
6432;SDS011;3249;42.690;23.260;2023-02-01T01:45:18;5.27;;;4.87;;
6432;SDS011;3249;42.690;23.260;2023-02-01T01:47:51;4.47;;;4.17;;
6432;SDS011;3249;42.690;23.260;2023-02-01T01:50:24;4.80;;;4.50;;
6432;SDS011;3249;42.690;23.260;2023-02-01T01:52:56;5.40;;;4.87;;
6432;SDS011;3249;42.690;23.260;2023-02-01T01:55:32;4.80;;;4.40;;
6432;SDS011;3249;42.690;23.260;2023-02-01T01:58:06;4.80;;;4.50;;
6432;SDS011;3249;42.690;23.260;2023-02-01T02:00:38;6.03;;;5.10;;
6432;SDS011;3249;42.690;23.260;2023-02-01T02:03:09;4.97;;;4.67;;
6432;SDS011;3249;42.690;23.260;2023-02-01T02:05:43;4.63;;;4.33;;
6432;SDS011;3249;42.690;23.260;2023-02-01T02:08:13;5.70;;;5.20;;
6432;SDS011;3249;42.690;23.260;2023-02-01T02:10:45;4.90;;;4.50;;
6432;SDS011;3249;42.690;23.260;2023-02-01T02:13:30;5.17;;;4.87;;
6432;SDS011;3249;42.690;23.260;2023-02-01T02:16:04;5.23;;;4.87;;
6432;SDS011;3249;42.690;23.260;2023-02-01T02:18:55;4.90;;;4.60;;
6432;SDS011;3249;42.690;23.260;2023-02-01T02:21:36;5.20;;;4.73;;
6432;SDS011;3249;42.690;23.260;2023-02-01T02:24:27;5.73;;;5.20;;
6432;SDS011;3249;42.690;23.260;2023-02-01T02:27:17;5.90;;;4.93;;
6432;SDS011;3249;42.690;23.260;2023-02-01T02:36:10;5.37;;;4.77;;
6432;SDS011;3249;42.690;23.260;2023-02-01T02:38:47;5.47;;;4.97;;
6432;SDS011;3249;42.690;23.260;2023-02-01T02:41:44;4.70;;;4.40;;
6432;SDS011;3249;42.690;23.260;2023-02-01T02:44:32;6.17;;;5.57;;
6432;SDS011;3249;42.690;23.260;2023-02-01T02:47:22;5.37;;;5.07;;
6432;SDS011;3249;42.690;23.260;2023-02-01T02:49:58;6.43;;;5.33;;
6432;SDS011;3249;42.690;23.260;2023-02-01T02:52:48;4.73;;;4.33;;
6432;SDS011;3249;42.690;23.260;2023-02-01T02:55:38;5.10;;;4.70;;
6432;SDS011;3249;42.690;23.260;2023-02-01T02:58:08;5.27;;;4.73;;
6432;SDS011;3249;42.690;23.260;2023-02-01T03:00:51;5.40;;;5.00;;
6432;SDS011;3249;42.690;23.260;2023-02-01T03:03:35;4.93;;;4.63;;
6432;SDS011;3249;42.690;23.260;2023-02-01T03:06:18;4.83;;;4.00;;
6432;SDS011;3249;42.690;23.260;2023-02-01T03:08:50;5.10;;;4.57;;
6432;SDS011;3249;42.690;23.260;2023-02-01T03:11:23;4.97;;;4.67;;
6432;SDS011;3249;42.690;23.260;2023-02-01T03:14:13;5.27;;;4.77;;
6432;SDS011;3249;42.690;23.260;2023-02-01T03:16:45;5.17;;;4.80;;
6432;SDS011;3249;42.690;23.260;2023-02-01T03:19:18;4.93;;;4.63;;
6432;SDS011;3249;42.690;23.260;2023-02-01T03:21:50;5.10;;;4.70;;
6432;SDS011;3249;42.690;23.260;2023-02-01T03:24:27;4.63;;;4.23;;
6432;SDS011;3249;42.690;23.260;2023-02-01T03:27:02;5.03;;;4.50;;
6432;SDS011;3249;42.690;23.260;2023-02-01T03:29:37;4.70;;;4.30;;
6432;SDS011;3249;42.690;23.260;2023-02-01T03:32:10;6.17;;;5.07;;
6432;SDS011;3249;42.690;23.260;2023-02-01T03:34:39;5.20;;;4.70;;
6432;SDS011;3249;42.690;23.260;2023-02-01T03:37:09;5.43;;;4.97;;
6432;SDS011;3249;42.690;23.260;2023-02-01T03:39:43;5.57;;;5.03;;
6432;SDS011;3249;42.690;23.260;2023-02-01T03:42:19;4.73;;;4.43;;
6432;SDS011;3249;42.690;23.260;2023-02-01T03:44:53;4.63;;;4.30;;
6432;SDS011;3249;42.690;23.260;2023-02-01T03:47:27;6.07;;;4.37;;
6432;SDS011;3249;42.690;23.260;2023-02-01T03:50:02;4.20;;;3.90;;
6432;SDS011;3249;42.690;23.260;2023-02-01T03:52:37;5.67;;;4.93;;
6432;SDS011;3249;42.690;23.260;2023-02-01T03:55:17;4.73;;;4.43;;
6432;SDS011;3249;42.690;23.260;2023-02-01T03:57:50;4.93;;;4.63;;
6432;SDS011;3249;42.690;23.260;2023-02-01T04:00:24;5.27;;;4.87;;
6432;SDS011;3249;42.690;23.260;2023-02-01T04:02:56;4.47;;;4.07;;
6432;SDS011;3249;42.690;23.260;2023-02-01T04:05:25;5.63;;;4.43;;
6432;SDS011;3249;42.690;23.260;2023-02-01T04:08:00;4.60;;;4.30;;
6432;SDS011;3249;42.690;23.260;2023-02-01T04:10:33;4.17;;;3.97;;
6432;SDS011;3249;42.690;23.260;2023-02-01T04:13:02;4.10;;;3.80;;
6432;SDS011;3249;42.690;23.260;2023-02-01T04:15:31;8.53;;;6.37;;
6432;SDS011;3249;42.690;23.260;2023-02-01T04:18:00;4.27;;;3.97;;
6432;SDS011;3249;42.690;23.260;2023-02-01T04:20:29;4.73;;;4.43;;
6432;SDS011;3249;42.690;23.260;2023-02-01T04:22:58;5.00;;;4.50;;
6432;SDS011;3249;42.690;23.260;2023-02-01T04:25:28;4.37;;;4.07;;
6432;SDS011;3249;42.690;23.260;2023-02-01T04:27:59;4.93;;;4.63;;
6432;SDS011;3249;42.690;23.260;2023-02-01T04:30:28;4.73;;;4.27;;
6432;SDS011;3249;42.690;23.260;2023-02-01T04:32:57;4.60;;;4.30;;
6432;SDS011;3249;42.690;23.260;2023-02-01T04:35:29;5.93;;;4.80;;
6432;SDS011;3249;42.690;23.260;2023-02-01T04:37:58;4.67;;;4.37;;
6432;SDS011;3249;42.690;23.260;2023-02-01T04:40:27;5.90;;;5.27;;
6432;SDS011;3249;42.690;23.260;2023-02-01T04:42:55;5.47;;;4.97;;
6432;SDS011;3249;42.690;23.260;2023-02-01T04:45:29;5.03;;;4.57;;
6432;SDS011;3249;42.690;23.260;2023-02-01T04:47:57;5.60;;;5.20;;
6432;SDS011;3249;42.690;23.260;2023-02-01T04:50:27;5.80;;;5.33;;
6432;SDS011;3249;42.690;23.260;2023-02-01T04:52:55;5.07;;;4.13;;
6432;SDS011;3249;42.690;23.260;2023-02-01T04:55:24;5.10;;;4.40;;
6432;SDS011;3249;42.690;23.260;2023-02-01T04:57:53;6.30;;;5.70;;
6432;SDS011;3249;42.690;23.260;2023-02-01T05:00:25;7.47;;;5.23;;
6432;SDS011;3249;42.690;23.260;2023-02-01T05:02:54;5.20;;;4.87;;
6432;SDS011;3249;42.690;23.260;2023-02-01T05:05:23;6.77;;;4.97;;
6432;SDS011;3249;42.690;23.260;2023-02-01T05:07:52;5.50;;;5.00;;
6432;SDS011;3249;42.690;23.260;2023-02-01T05:10:21;5.17;;;4.57;;
6432;SDS011;3249;42.690;23.260;2023-02-01T05:12:50;6.90;;;5.07;;
6432;SDS011;3249;42.690;23.260;2023-02-01T05:15:46;7.03;;;5.17;;
6432;SDS011;3249;42.690;23.260;2023-02-01T05:18:15;5.37;;;5.07;;
6432;SDS011;3249;42.690;23.260;2023-02-01T05:20:43;6.17;;;5.00;;
6432;SDS011;3249;42.690;23.260;2023-02-01T05:23:12;5.70;;;5.20;;
6432;SDS011;3249;42.690;23.260;2023-02-01T05:25:41;5.97;;;5.07;;
6432;SDS011;3249;42.690;23.260;2023-02-01T05:28:10;5.80;;;5.33;;
6432;SDS011;3249;42.690;23.260;2023-02-01T05:30:39;5.40;;;5.00;;
6432;SDS011;3249;42.690;23.260;2023-02-01T05:33:13;6.50;;;5.97;;
6432;SDS011;3249;42.690;23.260;2023-02-01T05:35:43;6.70;;;4.83;;
6432;SDS011;3249;42.690;23.260;2023-02-01T05:38:12;6.07;;;4.33;;
6432;SDS011;3249;42.690;23.260;2023-02-01T05:40:41;5.23;;;4.57;;
6432;SDS011;3249;42.690;23.260;2023-02-01T05:43:15;6.03;;;5.50;;
6432;SDS011;3249;42.690;23.260;2023-02-01T05:45:45;6.83;;;5.57;;
6432;SDS011;3249;42.690;23.260;2023-02-01T05:48:16;6.00;;;5.43;;
6432;SDS011;3249;42.690;23.260;2023-02-01T05:50:46;4.67;;;4.33;;
6432;SDS011;3249;42.690;23.260;2023-02-01T05:53:15;4.83;;;4.33;;
6432;SDS011;3249;42.690;23.260;2023-02-01T05:55:44;4.57;;;4.13;;
6432;SDS011;3249;42.690;23.260;2023-02-01T05:58:13;6.37;;;5.03;;
6432;SDS011;3249;42.690;23.260;2023-02-01T06:00:42;4.60;;;4.20;;
6432;SDS011;3249;42.690;23.260;2023-02-01T06:03:12;5.37;;;4.33;;
6432;SDS011;3249;42.690;23.260;2023-02-01T06:05:46;4.77;;;4.40;;
6432;SDS011;3249;42.690;23.260;2023-02-01T06:08:16;5.23;;;4.40;;
6432;SDS011;3249;42.690;23.260;2023-02-01T06:10:45;4.93;;;4.00;;
6432;SDS011;3249;42.690;23.260;2023-02-01T06:13:14;5.50;;;5.00;;
6432;SDS011;3249;42.690;23.260;2023-02-01T06:15:43;4.80;;;4.40;;
6432;SDS011;3249;42.690;23.260;2023-02-01T06:18:12;5.27;;;4.30;;
6432;SDS011;3249;42.690;23.260;2023-02-01T06:20:41;5.47;;;5.00;;
6432;SDS011;3249;42.690;23.260;2023-02-01T06:23:13;3.83;;;3.63;;
6432;SDS011;3249;42.690;23.260;2023-02-01T06:25:45;5.13;;;4.63;;
6432;SDS011;3249;42.690;23.260;2023-02-01T06:28:14;5.03;;;4.63;;
6432;SDS011;3249;42.690;23.260;2023-02-01T06:30:43;11.53;;;4.93;;
6432;SDS011;3249;42.690;23.260;2023-02-01T06:33:13;4.40;;;4.00;;
6432;SDS011;3249;42.690;23.260;2023-02-01T06:35:43;4.63;;;4.33;;
6432;SDS011;3249;42.690;23.260;2023-02-01T06:38:15;3.37;;;3.13;;
6432;SDS011;3249;42.690;23.260;2023-02-01T06:40:51;4.90;;;4.27;;
6432;SDS011;3249;42.690;23.260;2023-02-01T06:43:21;4.00;;;3.60;;
6432;SDS011;3249;42.690;23.260;2023-02-01T06:45:51;4.40;;;3.90;;
6432;SDS011;3249;42.690;23.260;2023-02-01T06:48:21;4.53;;;4.20;;
6432;SDS011;3249;42.690;23.260;2023-02-01T06:50:50;4.53;;;4.13;;
6432;SDS011;3249;42.690;23.260;2023-02-01T06:53:24;4.63;;;4.23;;
6432;SDS011;3249;42.690;23.260;2023-02-01T06:55:53;4.13;;;3.83;;
6432;SDS011;3249;42.690;23.260;2023-02-01T06:58:27;6.60;;;4.50;;
6432;SDS011;3249;42.690;23.260;2023-02-01T07:01:04;6.83;;;4.17;;
6432;SDS011;3249;42.690;23.260;2023-02-01T07:03:34;5.37;;;4.87;;
6432;SDS011;3249;42.690;23.260;2023-02-01T07:06:05;4.93;;;4.53;;
6432;SDS011;3249;42.690;23.260;2023-02-01T07:08:37;4.37;;;4.00;;
6432;SDS011;3249;42.690;23.260;2023-02-01T07:11:07;5.77;;;4.57;;
6432;SDS011;3249;42.690;23.260;2023-02-01T07:13:37;6.37;;;4.30;;
6432;SDS011;3249;42.690;23.260;2023-02-01T07:16:08;6.10;;;4.40;;
6432;SDS011;3249;42.690;23.260;2023-02-01T07:18:39;7.47;;;3.90;;
6432;SDS011;3249;42.690;23.260;2023-02-01T07:21:08;3.90;;;3.53;;
6432;SDS011;3249;42.690;23.260;2023-02-01T07:23:40;5.07;;;3.77;;
6432;SDS011;3249;42.690;23.260;2023-02-01T07:26:09;3.90;;;3.70;;
6432;SDS011;3249;42.690;23.260;2023-02-01T07:28:40;3.87;;;3.57;;
6432;SDS011;3249;42.690;23.260;2023-02-01T07:31:10;3.67;;;3.20;;
6432;SDS011;3249;42.690;23.260;2023-02-01T07:33:43;4.77;;;4.30;;
6432;SDS011;3249;42.690;23.260;2023-02-01T07:36:13;6.07;;;4.27;;
6432;SDS011;3249;42.690;23.260;2023-02-01T07:38:46;4.47;;;4.10;;
6432;SDS011;3249;42.690;23.260;2023-02-01T07:41:16;4.17;;;3.67;;
6432;SDS011;3249;42.690;23.260;2023-02-01T07:43:45;4.27;;;3.90;;
6432;SDS011;3249;42.690;23.260;2023-02-01T07:46:16;3.87;;;3.50;;
6432;SDS011;3249;42.690;23.260;2023-02-01T07:48:45;5.50;;;3.87;;
6432;SDS011;3249;42.690;23.260;2023-02-01T07:51:14;4.53;;;4.13;;
6432;SDS011;3249;42.690;23.260;2023-02-01T07:53:47;12.23;;;5.10;;
6432;SDS011;3249;42.690;23.260;2023-02-01T07:56:18;5.03;;;3.90;;
6432;SDS011;3249;42.690;23.260;2023-02-01T07:58:49;4.87;;;4.47;;
6432;SDS011;3249;42.690;23.260;2023-02-01T08:01:19;5.57;;;4.10;;
6432;SDS011;3249;42.690;23.260;2023-02-01T08:03:46;9.63;;;4.70;;
6432;SDS011;3249;42.690;23.260;2023-02-01T08:06:16;5.03;;;3.87;;
6432;SDS011;3249;42.690;23.260;2023-02-01T08:08:48;5.00;;;4.50;;
6432;SDS011;3249;42.690;23.260;2023-02-01T08:11:17;7.97;;;4.23;;
6432;SDS011;3249;42.690;23.260;2023-02-01T08:13:47;8.50;;;3.67;;
6432;SDS011;3249;42.690;23.260;2023-02-01T08:16:17;5.53;;;3.93;;
6432;SDS011;3249;42.690;23.260;2023-02-01T08:18:47;5.10;;;3.97;;
6432;SDS011;3249;42.690;23.260;2023-02-01T08:21:17;6.33;;;3.67;;
6432;SDS011;3249;42.690;23.260;2023-02-01T08:23:51;7.00;;;4.47;;
6432;SDS011;3249;42.690;23.260;2023-02-01T08:26:22;5.37;;;4.17;;
6432;SDS011;3249;42.690;23.260;2023-02-01T08:28:53;6.23;;;3.20;;
6432;SDS011;3249;42.690;23.260;2023-02-01T08:31:27;4.90;;;4.20;;
6432;SDS011;3249;42.690;23.260;2023-02-01T08:33:57;4.53;;;4.20;;
6432;SDS011;3249;42.690;23.260;2023-02-01T08:36:29;5.07;;;4.37;;
6432;SDS011;3249;42.690;23.260;2023-02-01T08:39:02;5.03;;;4.57;;
6432;SDS011;3249;42.690;23.260;2023-02-01T08:41:34;4.67;;;4.27;;
6432;SDS011;3249;42.690;23.260;2023-02-01T08:44:03;5.10;;;4.67;;
6432;SDS011;3249;42.690;23.260;2023-02-01T08:46:32;9.57;;;5.40;;
6432;SDS011;3249;42.690;23.260;2023-02-01T08:49:01;6.20;;;4.70;;
6432;SDS011;3249;42.690;23.260;2023-02-01T08:51:30;3.40;;;3.10;;
6432;SDS011;3249;42.690;23.260;2023-02-01T08:54:02;3.80;;;3.50;;
6432;SDS011;3249;42.690;23.260;2023-02-01T08:56:31;3.80;;;3.30;;
6432;SDS011;3249;42.690;23.260;2023-02-01T08:59:00;4.03;;;3.63;;
6432;SDS011;3249;42.690;23.260;2023-02-01T09:01:29;4.40;;;3.13;;
6432;SDS011;3249;42.690;23.260;2023-02-01T09:03:58;3.47;;;3.17;;
6432;SDS011;3249;42.690;23.260;2023-02-01T09:06:27;3.30;;;3.03;;
6432;SDS011;3249;42.690;23.260;2023-02-01T09:09:05;3.57;;;3.27;;
6432;SDS011;3249;42.690;23.260;2023-02-01T09:11:35;3.20;;;3.00;;
6432;SDS011;3249;42.690;23.260;2023-02-01T09:14:04;6.60;;;3.87;;
6432;SDS011;3249;42.690;23.260;2023-02-01T09:16:33;5.90;;;3.07;;
6432;SDS011;3249;42.690;23.260;2023-02-01T09:19:02;3.60;;;3.30;;
6432;SDS011;3249;42.690;23.260;2023-02-01T09:21:31;6.93;;;3.83;;
6432;SDS011;3249;42.690;23.260;2023-02-01T09:24:08;4.30;;;3.90;;
6432;SDS011;3249;42.690;23.260;2023-02-01T09:26:40;3.57;;;3.37;;
6432;SDS011;3249;42.690;23.260;2023-02-01T09:29:09;3.90;;;3.17;;
6432;SDS011;3249;42.690;23.260;2023-02-01T09:31:40;4.53;;;3.73;;
6432;SDS011;3249;42.690;23.260;2023-02-01T09:34:10;4.83;;;3.60;;
6432;SDS011;3249;42.690;23.260;2023-02-01T09:36:39;4.57;;;4.27;;
6432;SDS011;3249;42.690;23.260;2023-02-01T09:39:10;4.90;;;3.67;;
6432;SDS011;3249;42.690;23.260;2023-02-01T09:41:42;3.73;;;2.93;;
6432;SDS011;3249;42.690;23.260;2023-02-01T09:44:23;4.20;;;3.70;;
6432;SDS011;3249;42.690;23.260;2023-02-01T09:47:08;3.63;;;3.20;;
6432;SDS011;3249;42.690;23.260;2023-02-01T09:49:41;3.50;;;3.20;;
6432;SDS011;3249;42.690;23.260;2023-02-01T09:52:16;4.73;;;3.67;;
6432;SDS011;3249;42.690;23.260;2023-02-01T09:54:52;6.27;;;4.00;;
6432;SDS011;3249;42.690;23.260;2023-02-01T09:57:30;9.27;;;3.93;;
6432;SDS011;3249;42.690;23.260;2023-02-01T10:00:12;5.53;;;3.90;;
6432;SDS011;3249;42.690;23.260;2023-02-01T10:02:44;4.80;;;3.43;;
6432;SDS011;3249;42.690;23.260;2023-02-01T10:05:14;3.40;;;3.10;;
6432;SDS011;3249;42.690;23.260;2023-02-01T10:07:48;4.50;;;3.60;;
6432;SDS011;3249;42.690;23.260;2023-02-01T10:10:31;6.97;;;4.13;;
6432;SDS011;3249;42.690;23.260;2023-02-01T10:13:13;3.43;;;3.13;;
6432;SDS011;3249;42.690;23.260;2023-02-01T10:15:55;3.87;;;3.33;;
6432;SDS011;3249;42.690;23.260;2023-02-01T10:21:25;4.20;;;3.90;;
6432;SDS011;3249;42.690;23.260;2023-02-01T10:24:09;5.57;;;3.53;;
6432;SDS011;3249;42.690;23.260;2023-02-01T10:27:20;4.97;;;3.60;;
6432;SDS011;3249;42.690;23.260;2023-02-01T10:29:51;3.77;;;3.47;;
6432;SDS011;3249;42.690;23.260;2023-02-01T10:32:24;3.67;;;3.37;;
6432;SDS011;3249;42.690;23.260;2023-02-01T10:35:00;3.07;;;2.93;;
6432;SDS011;3249;42.690;23.260;2023-02-01T10:37:31;4.80;;;3.40;;
6432;SDS011;3249;42.690;23.260;2023-02-01T10:40:05;3.63;;;3.30;;
6432;SDS011;3249;42.690;23.260;2023-02-01T10:42:49;4.10;;;3.17;;
6432;SDS011;3249;42.690;23.260;2023-02-01T10:45:21;4.33;;;2.97;;
6432;SDS011;3249;42.690;23.260;2023-02-01T10:47:53;5.77;;;3.20;;
6432;SDS011;3249;42.690;23.260;2023-02-01T10:50:29;3.37;;;3.17;;
6432;SDS011;3249;42.690;23.260;2023-02-01T10:53:05;3.87;;;3.57;;
6432;SDS011;3249;42.690;23.260;2023-02-01T10:55:43;5.50;;;3.50;;
6432;SDS011;3249;42.690;23.260;2023-02-01T10:58:18;3.40;;;3.20;;
6432;SDS011;3249;42.690;23.260;2023-02-01T11:00:52;3.53;;;3.23;;
6432;SDS011;3249;42.690;23.260;2023-02-01T11:03:32;3.40;;;3.10;;
6432;SDS011;3249;42.690;23.260;2023-02-01T11:06:17;3.17;;;2.97;;
6432;SDS011;3249;42.690;23.260;2023-02-01T11:08:55;2.43;;;2.33;;
6432;SDS011;3249;42.690;23.260;2023-02-01T11:11:25;4.17;;;3.33;;
6432;SDS011;3249;42.690;23.260;2023-02-01T11:13:58;2.60;;;2.50;;
6432;SDS011;3249;42.690;23.260;2023-02-01T11:16:30;4.13;;;3.83;;
6432;SDS011;3249;42.690;23.260;2023-02-01T11:19:02;3.17;;;2.97;;
6432;SDS011;3249;42.690;23.260;2023-02-01T11:21:35;3.23;;;2.93;;
6432;SDS011;3249;42.690;23.260;2023-02-01T11:24:05;3.57;;;3.37;;
6432;SDS011;3249;42.690;23.260;2023-02-01T11:26:47;3.40;;;3.20;;
6432;SDS011;3249;42.690;23.260;2023-02-01T11:29:18;3.50;;;3.20;;
6432;SDS011;3249;42.690;23.260;2023-02-01T11:31:55;4.63;;;3.33;;
6432;SDS011;3249;42.690;23.260;2023-02-01T11:34:26;7.00;;;3.17;;
6432;SDS011;3249;42.690;23.260;2023-02-01T11:37:05;2.57;;;2.37;;
6432;SDS011;3249;42.690;23.260;2023-02-01T11:39:53;3.77;;;3.33;;
6432;SDS011;3249;42.690;23.260;2023-02-01T11:42:23;3.00;;;2.80;;
6432;SDS011;3249;42.690;23.260;2023-02-01T11:47:48;2.70;;;2.53;;
6432;SDS011;3249;42.690;23.260;2023-02-01T11:50:25;2.90;;;2.80;;
6432;SDS011;3249;42.690;23.260;2023-02-01T11:53:05;3.00;;;2.80;;
6432;SDS011;3249;42.690;23.260;2023-02-01T11:55:51;3.07;;;2.70;;
6432;SDS011;3249;42.690;23.260;2023-02-01T11:58:36;3.60;;;3.30;;
6432;SDS011;3249;42.690;23.260;2023-02-01T12:01:24;2.83;;;2.40;;
6432;SDS011;3249;42.690;23.260;2023-02-01T12:04:18;3.90;;;3.33;;
6432;SDS011;3249;42.690;23.260;2023-02-01T12:07:10;2.87;;;2.60;;
6432;SDS011;3249;42.690;23.260;2023-02-01T12:12:48;5.33;;;3.20;;
6432;SDS011;3249;42.690;23.260;2023-02-01T12:15:30;3.03;;;2.80;;
6432;SDS011;3249;42.690;23.260;2023-02-01T12:21:18;2.27;;;2.13;;
6432;SDS011;3249;42.690;23.260;2023-02-01T12:24:15;3.53;;;2.73;;
6432;SDS011;3249;42.690;23.260;2023-02-01T12:27:05;3.50;;;3.20;;
6432;SDS011;3249;42.690;23.260;2023-02-01T12:29:56;3.77;;;2.90;;
6432;SDS011;3249;42.690;23.260;2023-02-01T12:32:43;3.40;;;3.13;;
6432;SDS011;3249;42.690;23.260;2023-02-01T12:38:17;5.50;;;2.53;;
6432;SDS011;3249;42.690;23.260;2023-02-01T12:41:02;4.20;;;3.80;;
6432;SDS011;3249;42.690;23.260;2023-02-01T12:43:45;3.30;;;3.10;;
6432;SDS011;3249;42.690;23.260;2023-02-01T12:46:20;5.37;;;4.87;;
6432;SDS011;3249;42.690;23.260;2023-02-01T12:48:53;4.10;;;3.70;;
6432;SDS011;3249;42.690;23.260;2023-02-01T12:51:29;3.60;;;3.30;;
6432;SDS011;3249;42.690;23.260;2023-02-01T12:54:04;3.20;;;2.90;;
6432;SDS011;3249;42.690;23.260;2023-02-01T12:56:41;4.37;;;3.20;;
6432;SDS011;3249;42.690;23.260;2023-02-01T12:59:16;6.87;;;3.70;;
6432;SDS011;3249;42.690;23.260;2023-02-01T13:01:51;2.80;;;2.60;;
6432;SDS011;3249;42.690;23.260;2023-02-01T13:04:30;4.17;;;3.77;;
6432;SDS011;3249;42.690;23.260;2023-02-01T13:07:09;5.60;;;3.47;;
6432;SDS011;3249;42.690;23.260;2023-02-01T13:09:43;2.60;;;2.23;;
6432;SDS011;3249;42.690;23.260;2023-02-01T13:12:15;3.67;;;3.37;;
6432;SDS011;3249;42.690;23.260;2023-02-01T13:14:52;3.57;;;3.27;;
6432;SDS011;3249;42.690;23.260;2023-02-01T13:17:26;7.40;;;4.20;;
6432;SDS011;3249;42.690;23.260;2023-02-01T13:19:58;4.00;;;3.70;;
6432;SDS011;3249;42.690;23.260;2023-02-01T13:22:37;3.63;;;3.40;;
6432;SDS011;3249;42.690;23.260;2023-02-01T13:25:11;2.90;;;2.70;;
6432;SDS011;3249;42.690;23.260;2023-02-01T13:27:42;3.53;;;3.13;;
6432;SDS011;3249;42.690;23.260;2023-02-01T13:30:12;3.97;;;3.57;;
6432;SDS011;3249;42.690;23.260;2023-02-01T13:32:51;3.63;;;3.43;;
6432;SDS011;3249;42.690;23.260;2023-02-01T13:41:57;2.60;;;2.50;;
6432;SDS011;3249;42.690;23.260;2023-02-01T13:44:28;3.67;;;3.40;;
6432;SDS011;3249;42.690;23.260;2023-02-01T13:47:01;3.73;;;3.33;;
6432;SDS011;3249;42.690;23.260;2023-02-01T13:49:38;3.07;;;2.87;;
6432;SDS011;3249;42.690;23.260;2023-02-01T13:52:18;2.80;;;2.60;;
6432;SDS011;3249;42.690;23.260;2023-02-01T13:55:14;3.30;;;3.10;;
6432;SDS011;3249;42.690;23.260;2023-02-01T13:58:01;3.90;;;3.70;;
6432;SDS011;3249;42.690;23.260;2023-02-01T14:00:34;3.40;;;2.77;;
6432;SDS011;3249;42.690;23.260;2023-02-01T14:03:09;3.40;;;3.10;;
6432;SDS011;3249;42.690;23.260;2023-02-01T14:05:54;3.67;;;3.43;;
6432;SDS011;3249;42.690;23.260;2023-02-01T14:08:40;3.83;;;3.53;;
6432;SDS011;3249;42.690;23.260;2023-02-01T14:11:35;3.60;;;3.10;;
6432;SDS011;3249;42.690;23.260;2023-02-01T14:23:24;3.83;;;3.53;;
6432;SDS011;3249;42.690;23.260;2023-02-01T14:26:04;4.13;;;3.43;;
6432;SDS011;3249;42.690;23.260;2023-02-01T14:28:38;5.27;;;3.63;;
6432;SDS011;3249;42.690;23.260;2023-02-01T14:31:14;3.83;;;3.33;;
6432;SDS011;3249;42.690;23.260;2023-02-01T14:33:53;8.20;;;6.63;;
6432;SDS011;3249;42.690;23.260;2023-02-01T14:36:26;5.90;;;3.30;;
6432;SDS011;3249;42.690;23.260;2023-02-01T14:39:21;2.93;;;2.73;;
6432;SDS011;3249;42.690;23.260;2023-02-01T14:41:57;3.70;;;3.40;;
6432;SDS011;3249;42.690;23.260;2023-02-01T14:44:29;3.07;;;2.87;;
6432;SDS011;3249;42.690;23.260;2023-02-01T14:50:00;3.27;;;2.97;;
6432;SDS011;3249;42.690;23.260;2023-02-01T14:52:47;4.60;;;3.93;;
6432;SDS011;3249;42.690;23.260;2023-02-01T14:55:21;4.37;;;3.50;;
6432;SDS011;3249;42.690;23.260;2023-02-01T14:57:55;3.63;;;3.23;;
6432;SDS011;3249;42.690;23.260;2023-02-01T15:00:27;3.83;;;3.63;;
6432;SDS011;3249;42.690;23.260;2023-02-01T15:03:24;3.80;;;3.60;;
6432;SDS011;3249;42.690;23.260;2023-02-01T15:06:13;3.43;;;3.10;;
6432;SDS011;3249;42.690;23.260;2023-02-01T15:08:49;3.60;;;3.40;;
6432;SDS011;3249;42.690;23.260;2023-02-01T15:11:22;8.70;;;3.83;;
6432;SDS011;3249;42.690;23.260;2023-02-01T15:13:51;3.63;;;3.33;;
6432;SDS011;3249;42.690;23.260;2023-02-01T15:16:23;3.80;;;3.50;;
6432;SDS011;3249;42.690;23.260;2023-02-01T15:19:09;3.87;;;3.57;;
6432;SDS011;3249;42.690;23.260;2023-02-01T15:21:45;3.83;;;3.53;;
6432;SDS011;3249;42.690;23.260;2023-02-01T15:24:19;4.40;;;4.00;;
6432;SDS011;3249;42.690;23.260;2023-02-01T15:26:50;3.80;;;3.50;;
6432;SDS011;3249;42.690;23.260;2023-02-01T15:29:21;4.43;;;3.97;;
6432;SDS011;3249;42.690;23.260;2023-02-01T15:31:53;4.83;;;4.17;;
6432;SDS011;3249;42.690;23.260;2023-02-01T15:34:22;4.53;;;4.10;;
6432;SDS011;3249;42.690;23.260;2023-02-01T15:36:54;3.40;;;3.20;;
6432;SDS011;3249;42.690;23.260;2023-02-01T15:39:33;4.10;;;3.70;;
6432;SDS011;3249;42.690;23.260;2023-02-01T15:42:08;6.80;;;3.70;;
6432;SDS011;3249;42.690;23.260;2023-02-01T15:44:44;3.73;;;3.50;;
6432;SDS011;3249;42.690;23.260;2023-02-01T15:47:15;7.10;;;4.30;;
6432;SDS011;3249;42.690;23.260;2023-02-01T15:49:46;6.20;;;4.30;;
6432;SDS011;3249;42.690;23.260;2023-02-01T15:52:25;4.80;;;4.00;;
6432;SDS011;3249;42.690;23.260;2023-02-01T15:54:59;4.30;;;4.00;;
6432;SDS011;3249;42.690;23.260;2023-02-01T15:57:30;4.60;;;4.20;;
6432;SDS011;3249;42.690;23.260;2023-02-01T16:00:03;4.70;;;4.30;;
6432;SDS011;3249;42.690;23.260;2023-02-01T16:02:41;5.10;;;4.60;;
6432;SDS011;3249;42.690;23.260;2023-02-01T16:05:29;5.33;;;4.80;;
6432;SDS011;3249;42.690;23.260;2023-02-01T16:08:04;4.93;;;4.07;;
6432;SDS011;3249;42.690;23.260;2023-02-01T16:10:39;3.77;;;3.50;;
6432;SDS011;3249;42.690;23.260;2023-02-01T16:13:10;4.33;;;3.93;;
6432;SDS011;3249;42.690;23.260;2023-02-01T16:15:39;4.37;;;3.97;;
6432;SDS011;3249;42.690;23.260;2023-02-01T16:18:08;4.13;;;3.73;;
6432;SDS011;3249;42.690;23.260;2023-02-01T16:20:39;4.13;;;3.73;;